Flight Track Log - Related Links

Times and Time Zones

All times are in EDT time to prevent confusion due to time zone crossing. See the N629C flight status page for this flight to view local times or setup timezone preferences in your user account.

Time Position Orientation Groundspeed Altitude Reporting Facility
EDT Latitude Longitude Course Direction KTS MPH feet Rate Location/Type
Sat 01:31:22 PM 29.6058 -95.6556 46° Northeast 168 193 600  Level Houston Center
Sat 01:32:17 PM 29.6172 -95.6422 46° Northeast 101 116 1,400 737 Climbing Houston Center
Sat 01:33:16 PM 29.6461 -95.6497 347° North 127 146 2,000 513 Climbing Houston Center
Sat 01:34:14 PM 29.6828 -95.6706 334° Northwest 151 174 2,400 407 Climbing Houston Center
Sat 01:34:15 PM 29.6800 -95.6708 185° South 135 155 2,400 590 Level Houston Center
Sat 01:35:15 PM 29.7217 -95.6853 343° North 140 161 3,000 581 Climbing Houston Center
Sat 01:35:17 PM 29.7200 -95.6828 128° Southeast 145 167 3,000 393 Level Houston Center
Sat 01:36:16 PM 29.7606 -95.6975 343° North 143 165 3,400 387 Climbing Houston Center
Sat 01:36:19 PM 29.7575 -95.6964 162° South 143 165 3,400 94 Level Houston Center
Sat 01:37:20 PM 29.7961 -95.7106 342° North 143 165 3,500 94 Climbing Houston Center
Sat 01:37:23 PM 29.8042 -95.7142 339° North 152 175 3,500 194 Level Houston Center
Sat 01:38:22 PM 29.8386 -95.7236 347° North 152 175 3,700 484 Climbing Houston Center
Sat 01:38:25 PM 29.8472 -95.7283 335° Northwest 152 175 4,000 1,258 Climbing Houston Center
Sat 01:39:24 PM 29.8817 -95.7336 352° North 139 160 5,000 1,026 Climbing Houston Center
Sat 01:40:22 PM 29.9131 -95.7350 358° North 118 136 6,000 787 Climbing Houston Center
Sat 01:40:25 PM 29.9075 -95.7333 165° South 118 136 5,800 984 Descending Houston Center
Sat 01:41:23 PM 29.9425 -95.7364 356° North 108 124 7,000 1,161 Climbing Houston Center
Sat 01:41:27 PM 29.9447 -95.7358 12° North 113 130 7,000 984 Level Houston Center
Sat 01:42:24 PM 29.9744 -95.7422 349° North 111 128 8,000 984 Climbing Houston Center
Sat 01:42:28 PM 29.9742 -95.7417 120° Southeast 108 124 8,000 871 Level Houston Center
Sat 01:43:26 PM 30.0047 -95.7508 345° North 112 129 8,900 871 Climbing Houston Center
Sat 01:43:30 PM 30.0056 -95.7497 49° Northeast 114 131 8,900 984 Level Houston Center
Sat 01:44:27 PM 30.0389 -95.7564 350° North 122 140 9,900 871 Climbing Houston Center
Sat 01:44:32 PM 30.0378 -95.7564 180° South 118 136 9,800 492 Descending Houston Center
Sat 01:45:28 PM 30.0753 -95.7667 347° North 140 161 10,400 590 Climbing Houston Center
Sat 01:45:33 PM 30.0736 -95.7647 135° Southeast 128 147 10,400 90 Level Houston Center
Sat 01:46:35 PM 30.1169 -95.7814 342° North 158 182 10,500 97 Climbing Houston Center
Sat 01:47:37 PM 30.1772 -95.8031 343° North 180 207 10,600 49 Climbing Houston Center
Sat 01:48:38 PM 30.2225 -95.8208 341° North 180 207 10,600 -49 Level Houston Center
Sat 01:49:40 PM 30.2708 -95.8372 344° North 181 208 10,500  Descending Houston Center
Sat 01:50:44 PM 30.3183 -95.8547 342° North 180 207 10,600 49 Climbing Houston Center
Sat 01:51:43 PM 30.3675 -95.8714 344° North 183 211 10,600  Level Houston Center
Sat 01:52:45 PM 30.4142 -95.8889 342° North 179 206 10,600  Level Houston Center
Sat 01:53:47 PM 30.4628 -95.9064 343° North 181 208 10,600  Level Houston Center
Sat 01:54:51 PM 30.5094 -95.9233 343° North 178 205 10,600  Level Houston Center
Sat 01:55:50 PM 30.5658 -95.9431 343° North 176 203 10,600  Level Houston Center
Sat 01:56:51 PM 30.6139 -95.9597 343° North 179 206 10,600  Level Houston Center
Sat 01:57:53 PM 30.6633 -95.9800 341° North 175 201 10,600  Level Houston Center
Sat 01:58:54 PM 30.7094 -95.9956 344° North 178 205 10,600  Level Houston Center
Sat 01:59:56 PM 30.7567 -96.0125 343° North 178 205 10,600  Level Houston Center
Sat 02:00:58 PM 30.8044 -96.0300 343° North 180 207 10,600  Level Houston Center
Sat 02:01:59 PM 30.8511 -96.0472 342° North 177 204 10,600  Level Houston Center
Sat 02:03:01 PM 30.9058 -96.0664 343° North 181 208 10,600  Level Houston Center
Sat 02:04:02 PM 30.9544 -96.0825 344° North 180 207 10,600  Level Houston Center
Sat 02:05:04 PM 31.0011 -96.1008 341° North 177 204 10,600  Level Houston Center
Sat 02:06:06 PM 31.0500 -96.1175 344° North 180 207 10,600  Level Houston Center
Sat 02:07:07 PM 31.0978 -96.1358 342° North 180 207 10,600  Level Houston Center
Sat 02:08:09 PM 31.1456 -96.1533 343° North 180 207 10,600  Level Houston Center
Sat 02:09:11 PM 31.1942 -96.1714 342° North 181 208 10,600  Level Houston Center
Sat 02:10:12 PM 31.2433 -96.1889 343° North 181 208 10,600  Level Houston Center
Sat 02:11:14 PM 31.2903 -96.2072 342° North 178 205 10,600  Level Houston Center
Sat 02:12:16 PM 31.3464 -96.2267 344° North 177 204 10,600  Level Houston Center
Sat 02:13:18 PM 31.3939 -96.2447 342° North 178 205 10,600  Level Houston Center
Sat 02:14:19 PM 31.4414 -96.2633 342° North 178 205 10,600  Level Houston Center
Sat 02:15:21 PM 31.4892 -96.2792 344° North 178 205 10,600  Level Houston Center
Sat 02:16:23 PM 31.5375 -96.2981 342° North 180 207 10,600  Level Houston Center
Sat 02:17:24 PM 31.5856 -96.3147 344° North 179 206 10,600  Level Houston Center
Sat 02:18:26 PM 31.6336 -96.3339 341° North 181 208 10,600  Level Houston Center
Sat 02:19:08 PM 31.6642 -96.3450 343° North 180 207 10,600  Level Fort Worth Center
Sat 02:20:10 PM 31.7167 -96.3647 342° North 176 203 10,600  Level Fort Worth Center
Sat 02:21:12 PM 31.7639 -96.3833 341° North 178 205 10,600  Level Fort Worth Center
Sat 02:22:14 PM 31.8114 -96.4000 343° North 178 205 10,600  Level Fort Worth Center
Sat 02:23:15 PM 31.8592 -96.4169 343° North 178 205 10,600  Level Fort Worth Center
Sat 02:24:18 PM 31.9064 -96.4347 342° North 178 205 10,600 -48 Level Fort Worth Center
Sat 02:25:19 PM 31.9628 -96.4556 343° North 179 206 10,500  Descending Fort Worth Center
Sat 02:26:21 PM 32.0103 -96.4739 342° North 179 206 10,600 48 Climbing Fort Worth Center
Sat 02:27:23 PM 32.0578 -96.4911 343° North 178 205 10,600  Level Fort Worth Center
Sat 02:28:25 PM 32.1058 -96.5103 341° North 179 206 10,600 -49 Level Fort Worth Center
Sat 02:29:26 PM 32.1531 -96.5264 344° North 178 205 10,500 -49 Descending Fort Worth Center
Sat 02:30:28 PM 32.2006 -96.5447 342° North 178 205 10,500 -387 Level Fort Worth Center
Sat 02:31:30 PM 32.2578 -96.5661 342° North 184 212 9,700 -677 Descending Fort Worth Center
Sat 02:32:32 PM 32.3058 -96.5842 342° North 181 208 9,100 -581 Descending Fort Worth Center
Sat 02:33:34 PM 32.3586 -96.5978 348° North 180 207 8,500 -581 Descending Fort Worth Center
Sat 02:34:36 PM 32.4078 -96.6075 351° North 180 207 7,900 -581 Descending Fort Worth Center
Sat 02:35:38 PM 32.4608 -96.6194 349° North 180 207 7,300 -532 Descending Fort Worth Center
Sat 02:36:40 PM 32.5094 -96.6278 352° North 178 205 6,800 -532 Descending Fort Worth Center
Sat 02:37:42 PM 32.5575 -96.6358 352° North 175 201 6,200 -581 Descending Fort Worth Center
Sat 02:38:44 PM 32.6103 -96.6447 352° North 178 205 5,600 -621 Descending Fort Worth Center
Sat 02:39:38 PM 32.6500 -96.6500 354° North 176 203 5,000 -647 Descending Dallas / Fort Worth TRACON
Sat 02:40:26 PM 32.7000 -96.6500 360° North 175 201 4,500 -611 Descending Dallas / Fort Worth TRACON
Sat 02:41:26 PM 32.7333 -96.6667 337° Northwest 176 203 3,900 -550 Descending Dallas / Fort Worth TRACON
Sat 02:42:26 PM 32.7833 -96.6833 344° North 160 184 3,400 -500 Descending Dallas / Fort Worth TRACON
Sat 02:43:26 PM 32.8167 -96.7000 337° Northwest 159 183 2,900 -400 Descending Dallas / Fort Worth TRACON
Sat 02:44:26 PM 32.8500 -96.7333 320° Northwest 148 170 2,600 -200 Descending Dallas / Fort Worth TRACON
Sat 02:45:26 PM 32.9000 -96.7667 331° Northwest 149 171 2,500 -48 Descending Dallas / Fort Worth TRACON
Sat 02:46:32 PM 32.9333 -96.7833 337° Northwest 143 165 2,500  Level Dallas / Fort Worth TRACON
Sat 02:47:32 PM 32.9667 -96.8167 320° Northwest 140 161 2,500 -400 Level Dallas / Fort Worth TRACON
Sat 02:48:32 PM 33.0000 -96.8333 337° Northwest 133 153 1,700 -800 Descending Dallas / Fort Worth TRACON
Sat 02:49:32 PM 32.9833 -96.8500 220° Southwest 108 124 900 -800 Descending Dallas / Fort Worth TRACON
Sat 02:52:00 PM 32.9667 -96.8333 140° Southeast  Level FlightAware Approximate
Sat 02:59:00 PM 32.9686 -96.8364 140° Southeast  Level Estimated

Login

Don't have an account? Register now (free) for customized features, flight alerts, and more!